Main page
Satellite images Climate Cyclones Lightning AirportsFAQ Languages Contact Newsletter About
Weather : Europe Africa North America South America Asia Australia-Oceania Others

, Pattaya-Rayong, U-Tapao International Airport

latitude: , longitude: Thailand, elevation: 12-38N m


METAR: VTBU 270030Z 22004KT 9000 FEW020 SCT100 28/22 Q1006 NOSIG